createdAt,value
2022-08-30T00:00:15.497Z,100017.28
2022-08-30T00:01:06.671Z,100014.41
2022-08-30T00:01:53.447Z,100017.34
2022-08-30T00:02:40.371Z,100014.81
2022-08-30T00:03:27.662Z,100019.06
2022-08-30T00:04:14.663Z,100016.34
2022-08-30T00:05:02.194Z,100018.84
2022-08-30T00:05:49.388Z,100020.53
2022-08-30T00:06:36.159Z,100019.69
2022-08-30T00:07:23.547Z,100018.00
2022-08-30T00:08:10.646Z,100014.63
2022-08-30T00:08:57.584Z,100014.44
2022-08-30T00:09:44.406Z,100015.91
2022-08-30T00:10:31.474Z,100019.25
2022-08-30T00:11:24.739Z,100010.69
2022-08-30T00:12:11.388Z,100007.53
2022-08-30T00:12:58.818Z,100005.81
2022-08-30T00:13:46.479Z,100017.78
2022-08-30T00:14:33.359Z,100006.47
2022-08-30T00:15:21.067Z,100013.81
2022-08-30T00:16:08.384Z,100013.81
2022-08-30T00:16:55.621Z,100009.38
2022-08-30T00:17:43.680Z,100008.31
2022-08-30T00:18:30.508Z,100009.38
2022-08-30T00:19:17.606Z,100011.25
2022-08-30T00:20:07.956Z,100010.59
2022-08-30T00:20:56.060Z,100013.56
2022-08-30T00:21:42.831Z,100019.66
2022-08-30T00:22:29.838Z,100011.31
2022-08-30T00:23:18.720Z,100012.53
2022-08-30T00:24:05.787Z,100008.16
2022-08-30T00:24:52.739Z,100011.06
2022-08-30T00:25:40.042Z,100012.50
2022-08-30T00:26:27.347Z,100017.16
2022-08-30T00:27:14.181Z,100012.75
2022-08-30T00:28:01.365Z,100019.66
2022-08-30T00:28:48.187Z,100017.38
2022-08-30T00:29:35.015Z,100016.09
2022-08-30T00:30:22.217Z,100015.25
2022-08-30T00:31:09.367Z,100016.72
2022-08-30T00:31:56.286Z,100020.28
2022-08-30T00:32:43.551Z,100015.50
2022-08-30T00:33:30.752Z,100018.44
2022-08-30T00:34:18.273Z,100015.50
2022-08-30T00:35:07.200Z,100018.03
2022-08-30T00:35:54.455Z,100016.56
2022-08-30T00:36:41.265Z,100021.41
2022-08-30T00:37:28.484Z,100023.50
2022-08-30T00:38:15.423Z,100016.16
2022-08-30T00:39:02.343Z,100019.06
2022-08-30T00:39:49.285Z,100022.00
2022-08-30T00:40:36.520Z,100021.53
2022-08-30T00:41:23.426Z,100025.34
2022-08-30T00:42:11.045Z,100022.41
2022-08-30T00:43:00.018Z,100019.28
2022-08-30T00:43:52.518Z,100021.16
2022-08-30T00:44:40.137Z,100018.25
2022-08-30T00:45:34.570Z,100025.41
2022-08-30T00:46:21.398Z,100026.41
2022-08-30T00:47:08.441Z,100017.00
2022-08-30T00:47:55.650Z,100023.25
2022-08-30T00:48:45.805Z,100026.41
2022-08-30T00:49:34.142Z,100027.25
2022-08-30T00:50:25.760Z,100017.84
2022-08-30T00:51:14.517Z,100026.44
2022-08-30T00:52:02.445Z,100029.78
2022-08-30T00:52:52.131Z,100018.88
2022-08-30T00:53:43.266Z,100024.75
2022-08-30T00:54:31.707Z,100025.12
2022-08-30T00:55:19.958Z,100022.63
2022-08-30T00:56:07.599Z,100022.84
2022-08-30T00:56:54.560Z,100013.84
2022-08-30T00:57:43.808Z,100016.56
2022-08-30T00:58:39.719Z,100019.06
2022-08-30T00:59:26.800Z,100016.13
2022-08-30T01:00:15.544Z,100015.50
2022-08-30T01:01:02.994Z,100017.19
2022-08-30T01:01:50.798Z,100011.34
2022-08-30T01:02:38.016Z,100015.34
2022-08-30T01:03:25.103Z,100009.66
2022-08-30T01:04:13.784Z,100013.03
2022-08-30T01:05:02.507Z,100015.12
2022-08-30T01:05:51.729Z,100014.09
2022-08-30T01:06:40.121Z,100013.03
2022-08-30T01:07:26.968Z,100012.81
2022-08-30T01:08:15.852Z,100019.09
2022-08-30T01:09:04.726Z,100014.50
2022-08-30T01:09:51.603Z,100016.34
2022-08-30T01:10:39.120Z,100019.72
2022-08-30T01:11:26.849Z,100016.56
2022-08-30T01:12:13.812Z,100025.56
2022-08-30T01:13:04.005Z,100023.25
2022-08-30T01:13:52.399Z,100023.72
2022-08-30T01:14:39.368Z,100021.81
2022-08-30T01:15:26.416Z,100018.47
2022-08-30T01:16:15.380Z,100016.81
2022-08-30T01:17:02.879Z,100016.16
2022-08-30T01:17:50.022Z,100021.56
2022-08-30T01:18:37.402Z,100028.94
2022-08-30T01:19:49.100Z,100023.72
2022-08-30T01:20:58.445Z,100025.81
2022-08-30T01:21:50.320Z,100027.72
2022-08-30T01:22:44.681Z,100024.53
2022-08-30T01:23:39.716Z,100019.72
2022-08-30T01:24:29.074Z,100021.81
2022-08-30T01:25:19.256Z,100019.72
2022-08-30T01:26:06.466Z,100027.25
2022-08-30T01:26:53.287Z,100026.63
2022-08-30T01:27:44.933Z,100021.81
2022-08-30T01:28:32.496Z,100014.25
2022-08-30T01:29:22.244Z,100023.50
2022-08-30T01:30:10.030Z,100027.88
2022-08-30T01:30:57.333Z,100024.75
2022-08-30T01:31:44.195Z,100020.13
2022-08-30T01:32:30.959Z,100029.56
2022-08-30T01:33:20.370Z,100024.53
2022-08-30T01:34:08.148Z,100023.69
2022-08-30T01:34:56.293Z,100026.63
2022-08-30T01:36:01.346Z,100022.06
2022-08-30T01:36:49.253Z,100017.19
2022-08-30T01:37:36.960Z,100028.47
2022-08-30T01:38:31.136Z,100028.06
2022-08-30T01:39:19.106Z,100027.00
2022-08-30T01:40:07.428Z,100024.91
2022-08-30T01:41:09.875Z,100026.81
2022-08-30T01:41:56.773Z,100030.16
2022-08-30T01:42:43.566Z,100027.44
2022-08-30T01:43:30.360Z,100029.34
2022-08-30T01:44:17.281Z,100029.34
2022-08-30T01:45:05.473Z,100031.44
2022-08-30T01:45:52.458Z,100032.88
2022-08-30T01:46:45.786Z,100030.78
2022-08-30T01:47:32.856Z,100033.50
2022-08-30T01:48:21.074Z,100027.84
2022-08-30T01:49:12.045Z,100021.78
2022-08-30T01:49:58.909Z,100027.03
2022-08-30T01:50:45.718Z,100024.91
2022-08-30T01:51:32.859Z,100024.09
2022-08-30T01:52:20.102Z,100019.91
2022-08-30T01:53:07.230Z,100020.75
2022-08-30T01:53:54.808Z,100019.47
2022-08-30T01:54:43.152Z,100018.84
2022-08-30T01:55:29.945Z,100024.94
2022-08-30T01:56:17.522Z,100023.69
2022-08-30T01:57:05.871Z,100022.63
2022-08-30T01:57:52.847Z,100025.38
2022-08-30T01:58:40.620Z,100021.19
2022-08-30T01:59:27.679Z,100024.56
2022-08-30T02:00:14.968Z,100023.28
2022-08-30T02:01:04.738Z,100023.72
2022-08-30T02:01:52.219Z,100022.88
2022-08-30T02:02:39.766Z,100023.72
2022-08-30T02:03:30.640Z,100021.59
2022-08-30T02:04:18.456Z,100027.06
2022-08-30T02:05:06.340Z,100023.50
2022-08-30T02:05:53.221Z,100019.34
2022-08-30T02:06:40.430Z,100021.19
2022-08-30T02:07:27.287Z,100019.34
2022-08-30T02:08:14.308Z,100013.03
2022-08-30T02:09:01.841Z,100019.75
2022-08-30T02:09:48.742Z,100015.12
2022-08-30T02:10:35.819Z,100014.75
2022-08-30T02:11:22.813Z,100017.66
2022-08-30T02:12:09.681Z,100016.84
2022-08-30T02:12:56.639Z,100018.94
2022-08-30T02:13:44.760Z,100018.31
2022-08-30T02:14:31.633Z,100023.97
2022-08-30T02:15:18.933Z,100013.72
2022-08-30T02:16:07.865Z,100014.78
2022-08-30T02:16:54.812Z,100019.97
2022-08-30T02:17:42.595Z,100016.44
2022-08-30T02:18:29.799Z,100018.09
2022-08-30T02:19:16.685Z,100018.31
2022-08-30T02:20:04.968Z,100014.94
2022-08-30T02:20:52.098Z,100014.78
2022-08-30T02:21:38.863Z,100016.25
2022-08-30T02:22:25.716Z,100005.34
2022-08-30T02:23:12.659Z,100007.44
2022-08-30T02:23:59.687Z,100012.25
2022-08-30T02:24:46.674Z,100014.34
2022-08-30T02:25:33.466Z,100008.09
2022-08-30T02:26:20.601Z,100011.19
2022-08-30T02:27:07.803Z,100013.53
2022-08-30T02:27:54.641Z,100014.16
2022-08-30T02:28:42.800Z,100009.94
2022-08-30T02:29:37.208Z,100007.88
2022-08-30T02:30:24.137Z,100014.38
2022-08-30T02:31:11.454Z,100013.53
2022-08-30T02:31:58.605Z,100011.88
2022-08-30T02:32:45.366Z,100018.56
2022-08-30T02:33:32.385Z,100012.69
2022-08-30T02:34:19.388Z,100014.78
2022-08-30T02:35:06.699Z,100016.06
2022-08-30T02:35:53.847Z,100019.00
2022-08-30T02:36:41.813Z,100024.88
2022-08-30T02:37:28.913Z,100024.44
2022-08-30T02:38:15.774Z,100021.31
2022-08-30T02:39:07.332Z,100019.84
2022-08-30T02:39:54.146Z,100021.09
2022-08-30T02:40:41.110Z,100022.34
2022-08-30T02:41:28.135Z,100020.06
2022-08-30T02:42:14.945Z,100030.31
2022-08-30T02:43:01.766Z,100018.16
2022-08-30T02:43:48.778Z,100016.87
2022-08-30T02:44:35.605Z,100015.44
2022-08-30T02:45:22.727Z,100028.22
2022-08-30T02:46:09.819Z,100020.91
2022-08-30T02:46:57.003Z,100023.81
2022-08-30T02:47:46.993Z,100024.25
2022-08-30T02:48:34.327Z,100027.16
2022-08-30T02:49:33.275Z,100025.72
2022-08-30T02:50:20.915Z,100023.81
2022-08-30T02:51:11.545Z,100028.62
2022-08-30T02:51:58.727Z,100023.41
2022-08-30T02:52:48.183Z,100023.84
2022-08-30T02:53:35.646Z,100024.66
2022-08-30T02:54:23.607Z,100026.56
2022-08-30T02:55:11.057Z,100030.72
2022-08-30T02:55:58.087Z,100027.81
2022-08-30T02:56:44.976Z,100023.22
2022-08-30T02:57:31.866Z,100023.41
2022-08-30T02:58:18.744Z,100024.66
2022-08-30T02:59:05.523Z,100021.13
2022-08-30T02:59:52.544Z,100021.94
2022-08-30T03:00:39.976Z,100012.12
2022-08-30T03:01:29.303Z,100019.87
2022-08-30T03:02:16.593Z,100021.13
2022-08-30T03:03:04.285Z,100021.53
2022-08-30T03:03:51.314Z,100026.38
2022-08-30T03:04:39.399Z,100018.81
2022-08-30T03:05:26.647Z,100024.25
2022-08-30T03:06:14.380Z,100021.56
2022-08-30T03:07:01.131Z,100019.25
2022-08-30T03:07:48.009Z,100019.69
2022-08-30T03:08:34.815Z,100025.94
2022-08-30T03:09:22.406Z,100021.16
2022-08-30T03:10:10.183Z,100026.38
2022-08-30T03:10:59.631Z,100028.25
2022-08-30T03:11:46.489Z,100026.16
2022-08-30T03:12:33.502Z,100026.81
2022-08-30T03:13:21.554Z,100021.78
2022-08-30T03:14:08.445Z,100020.53
2022-08-30T03:14:55.320Z,100022.63
2022-08-30T03:15:42.354Z,100026.81
2022-08-30T03:16:29.132Z,100026.59
2022-08-30T03:17:17.039Z,100022.81
2022-08-30T03:18:04.283Z,100022.00
2022-08-30T03:18:51.441Z,100030.78
2022-08-30T03:19:38.852Z,100014.63
2022-08-30T03:20:26.356Z,100026.59
2022-08-30T03:21:14.788Z,100022.81
2022-08-30T03:22:02.292Z,100021.34
2022-08-30T03:22:49.572Z,100021.78
2022-08-30T03:23:36.566Z,100019.06
2022-08-30T03:24:23.346Z,100026.59
2022-08-30T03:25:10.782Z,100024.09
2022-08-30T03:25:57.984Z,100022.00
2022-08-30T03:26:46.575Z,100024.91
2022-08-30T03:27:33.626Z,100024.09
2022-08-30T03:28:20.461Z,100028.69
2022-08-30T03:29:07.707Z,100018.84
2022-08-30T03:29:57.281Z,100027.84
2022-08-30T03:30:44.456Z,100027.84
2022-08-30T03:31:31.379Z,100025.56
2022-08-30T03:32:25.101Z,100022.63
2022-08-30T03:33:12.274Z,100022.00
2022-08-30T03:33:59.390Z,100025.75
2022-08-30T03:34:46.329Z,100036.63
2022-08-30T03:35:33.417Z,100020.94
2022-08-30T03:36:20.356Z,100024.94
2022-08-30T03:37:07.207Z,100030.37
2022-08-30T03:37:56.094Z,100024.50
2022-08-30T03:38:43.552Z,100036.63
2022-08-30T03:39:30.487Z,100024.09
2022-08-30T03:40:18.839Z,100030.78
2022-08-30T03:41:06.122Z,100030.56
2022-08-30T03:41:54.835Z,100030.37
2022-08-30T03:42:43.482Z,100031.84
2022-08-30T03:43:33.454Z,100031.19
2022-08-30T03:44:21.421Z,100033.50
2022-08-30T03:45:08.831Z,100034.56
2022-08-30T03:45:57.262Z,100031.19
2022-08-30T03:46:45.440Z,100036.84
2022-08-30T03:47:32.349Z,100033.28
2022-08-30T03:48:19.293Z,100041.44
2022-08-30T03:49:06.641Z,100040.63
2022-08-30T03:49:53.527Z,100048.78
2022-08-30T03:50:40.846Z,100044.81
2022-08-30T03:51:27.780Z,100041.66
2022-08-30T03:52:14.696Z,100043.34
2022-08-30T03:53:02.168Z,100046.25
2022-08-30T03:53:49.293Z,100047.53
2022-08-30T03:54:36.143Z,100051.50
2022-08-30T03:55:25.269Z,100048.78
2022-08-30T03:56:12.197Z,100049.38
2022-08-30T03:56:59.063Z,100049.38
2022-08-30T03:57:46.048Z,100051.50
2022-08-30T03:58:33.330Z,100053.16
2022-08-30T03:59:20.247Z,100052.31
2022-08-30T04:00:07.903Z,100053.34
2022-08-30T04:00:54.876Z,100061.50
2022-08-30T04:01:46.072Z,100050.44
2022-08-30T04:02:33.095Z,100056.31
2022-08-30T04:03:26.015Z,100058.78
2022-08-30T04:04:16.286Z,100063.41
2022-08-30T04:05:06.173Z,100065.69
2022-08-30T04:05:54.697Z,100062.97
2022-08-30T04:06:41.722Z,100060.06
2022-08-30T04:07:28.659Z,100062.12
2022-08-30T04:08:16.134Z,100060.69
2022-08-30T04:09:03.128Z,100064.47
2022-08-30T04:09:49.938Z,100061.13
2022-08-30T04:10:37.005Z,100061.50
2022-08-30T04:11:23.839Z,100069.47
2022-08-30T04:12:10.687Z,100066.75
2022-08-30T04:12:57.680Z,100064.03
2022-08-30T04:13:44.706Z,100060.47
2022-08-30T04:14:31.649Z,100065.69
2022-08-30T04:15:19.690Z,100068.22
2022-08-30T04:16:06.722Z,100070.31
2022-08-30T04:16:53.668Z,100069.06
2022-08-30T04:17:40.726Z,100071.16
2022-08-30T04:18:27.619Z,100070.94
2022-08-30T04:19:14.527Z,100073.25
2022-08-30T04:20:02.049Z,100070.53
2022-08-30T04:20:49.046Z,100072.62
2022-08-30T04:21:42.750Z,100071.75
2022-08-30T04:22:30.195Z,100074.69
2022-08-30T04:23:17.166Z,100069.91
2022-08-30T04:24:04.880Z,100075.34
2022-08-30T04:24:51.707Z,100066.75
2022-08-30T04:25:39.960Z,100072.19
2022-08-30T04:26:29.431Z,100069.91
2022-08-30T04:27:20.330Z,100067.37
2022-08-30T04:28:08.945Z,100064.66
2022-08-30T04:28:56.342Z,100074.06
2022-08-30T04:29:44.035Z,100073.66
2022-08-30T04:30:30.935Z,100078.69
2022-08-30T04:31:19.163Z,100067.81
2022-08-30T04:32:06.228Z,100079.09
2022-08-30T04:32:58.077Z,100069.06
2022-08-30T04:33:45.839Z,100079.31
2022-08-30T04:34:32.901Z,100080.34
2022-08-30T04:35:20.110Z,100073.88
2022-08-30T04:36:08.762Z,100077.87
2022-08-30T04:36:55.590Z,100079.12
2022-08-30T04:37:42.330Z,100080.78
2022-08-30T04:38:30.531Z,100078.88
2022-08-30T04:39:20.216Z,100087.47
2022-08-30T04:40:08.213Z,100084.56
2022-08-30T04:40:55.477Z,100085.38
2022-08-30T04:41:42.466Z,100086.66
2022-08-30T04:42:32.721Z,100086.00
2022-08-30T04:43:19.528Z,100090.00
2022-08-30T04:44:06.641Z,100091.44
2022-08-30T04:44:55.956Z,100093.12
2022-08-30T04:45:43.442Z,100087.47
2022-08-30T04:46:30.813Z,100087.25
2022-08-30T04:47:18.696Z,100084.13
2022-08-30T04:48:05.846Z,100089.13
2022-08-30T04:48:52.620Z,100091.66
2022-08-30T04:49:39.687Z,100091.25
2022-08-30T04:50:26.726Z,100089.94
2022-08-30T04:51:15.529Z,100093.91
2022-08-30T04:52:02.687Z,100089.28
2022-08-30T04:52:49.525Z,100089.03
2022-08-30T04:53:36.814Z,100091.75
2022-08-30T04:54:23.629Z,100082.31
2022-08-30T04:55:11.121Z,100080.16
2022-08-30T04:55:57.892Z,100088.09
2022-08-30T04:56:44.849Z,100089.34
2022-08-30T04:57:31.761Z,100088.91
2022-08-30T04:58:18.673Z,100096.19
2022-08-30T04:59:05.987Z,100081.25
2022-08-30T04:59:53.128Z,100082.50
2022-08-30T05:00:42.287Z,100081.66
2022-08-30T05:01:31.849Z,100091.50
2022-08-30T05:02:25.119Z,100086.88
2022-08-30T05:03:12.971Z,100092.31
2022-08-30T05:04:00.375Z,100089.94
2022-08-30T05:05:06.275Z,100086.31
2022-08-30T05:05:53.234Z,100086.72
2022-08-30T05:06:40.060Z,100091.75
2022-08-30T05:07:26.960Z,100098.41
2022-08-30T05:08:16.327Z,100086.84
2022-08-30T05:09:03.567Z,100099.34
2022-08-30T05:09:50.407Z,100092.41
2022-08-30T05:10:45.411Z,100101.37
2022-08-30T05:11:32.322Z,100096.84
2022-08-30T05:12:19.261Z,100096.84
2022-08-30T05:13:06.529Z,100085.66
2022-08-30T05:13:53.485Z,100092.56
2022-08-30T05:14:40.288Z,100093.34
2022-08-30T05:15:27.081Z,100088.03
2022-08-30T05:16:23.654Z,100089.19
2022-08-30T05:17:10.566Z,100092.66
2022-08-30T05:17:57.682Z,100090.47
2022-08-30T05:18:49.126Z,100096.44
2022-08-30T05:19:36.006Z,100086.12
2022-08-30T05:20:22.801Z,100093.63
2022-08-30T05:21:12.034Z,100102.13
2022-08-30T05:21:58.807Z,100101.75
2022-08-30T05:22:53.955Z,100096.78
2022-08-30T05:23:41.720Z,100105.00
2022-08-30T05:24:28.487Z,100098.97
2022-08-30T05:25:19.962Z,100098.81
2022-08-30T05:26:10.002Z,100099.91
2022-08-30T05:26:56.781Z,100100.91
2022-08-30T05:27:43.639Z,100099.34
2022-08-30T05:28:30.361Z,100100.72
2022-08-30T05:29:17.149Z,100105.81
2022-08-30T05:30:06.397Z,100099.41
2022-08-30T05:30:53.243Z,100104.44
2022-08-30T05:31:40.177Z,100105.28
2022-08-30T05:32:27.053Z,100106.25
2022-08-30T05:33:13.794Z,100102.34
2022-08-30T05:34:00.828Z,100106.28
2022-08-30T05:34:47.658Z,100109.34
2022-08-30T05:35:38.524Z,100105.88
2022-08-30T05:36:29.031Z,100101.37
2022-08-30T05:37:15.662Z,100106.84
2022-08-30T05:38:02.513Z,100104.94
2022-08-30T05:38:50.700Z,100104.47
2022-08-30T05:39:50.853Z,100112.47
2022-08-30T05:40:41.674Z,100102.34
2022-08-30T05:41:28.596Z,100106.62
2022-08-30T05:42:16.829Z,100111.87
2022-08-30T05:43:03.767Z,100114.97
2022-08-30T05:43:53.710Z,100111.97
2022-08-30T05:44:40.640Z,100110.69
2022-08-30T05:45:31.174Z,100119.50
2022-08-30T05:46:20.010Z,100118.78
2022-08-30T05:47:07.019Z,100129.03
2022-08-30T05:47:53.979Z,100120.19
2022-08-30T05:48:41.003Z,100125.69
2022-08-30T05:49:27.936Z,100130.56
2022-08-30T05:50:15.468Z,100130.34
2022-08-30T05:51:12.960Z,100119.72
2022-08-30T05:51:59.754Z,100128.53
2022-08-30T05:52:46.847Z,100119.03
2022-08-30T05:53:34.246Z,100117.44
2022-08-30T05:54:21.035Z,100120.91
2022-08-30T05:55:09.220Z,100125.25
2022-08-30T05:55:56.070Z,100126.97
2022-08-30T05:56:45.457Z,100124.66
2022-08-30T05:57:34.025Z,100129.28
2022-08-30T05:58:22.402Z,100130.81
2022-08-30T05:59:09.478Z,100135.94
2022-08-30T05:59:56.247Z,100132.37
2022-08-30T06:00:43.046Z,100140.25
2022-08-30T06:01:33.299Z,100138.56
2022-08-30T06:02:20.189Z,100137.12
2022-08-30T06:03:07.118Z,100139.03
2022-08-30T06:03:55.189Z,100136.13
2022-08-30T06:04:42.086Z,100142.91
2022-08-30T06:05:30.179Z,100137.53
2022-08-30T06:06:22.736Z,100142.75
2022-08-30T06:07:12.950Z,100141.19
2022-08-30T06:08:02.122Z,100138.78
2022-08-30T06:08:49.522Z,100141.75
2022-08-30T06:09:36.414Z,100132.88
2022-08-30T06:10:23.159Z,100135.72
2022-08-30T06:11:10.008Z,100142.06
2022-08-30T06:11:57.942Z,100138.81
2022-08-30T06:12:44.810Z,100140.56
2022-08-30T06:13:32.541Z,100138.19
2022-08-30T06:14:19.474Z,100139.19
2022-08-30T06:15:07.202Z,100141.78
2022-08-30T06:15:54.790Z,100136.38
2022-08-30T06:16:44.279Z,100143.19
2022-08-30T06:17:31.362Z,100146.66
2022-08-30T06:18:18.981Z,100147.12
2022-08-30T06:19:16.079Z,100140.66
2022-08-30T06:20:03.234Z,100137.75
2022-08-30T06:20:51.987Z,100139.91
2022-08-30T06:21:41.334Z,100135.00
2022-08-30T06:22:28.210Z,100136.75
2022-08-30T06:23:17.818Z,100139.47
2022-08-30T06:24:06.418Z,100141.09
2022-08-30T06:24:57.509Z,100138.84
2022-08-30T06:25:45.359Z,100140.69
2022-08-30T06:27:19.494Z,100138.69
2022-08-30T06:28:06.915Z,100146.31
2022-08-30T06:28:54.525Z,100143.72
2022-08-30T06:29:42.035Z,100138.91
2022-08-30T06:30:28.837Z,100143.31
2022-08-30T06:31:17.794Z,100147.00
2022-08-30T06:32:05.160Z,100145.41
2022-08-30T06:32:52.050Z,100142.00
2022-08-30T06:33:39.300Z,100143.38
2022-08-30T06:34:27.299Z,100145.41
2022-08-30T06:35:14.326Z,100149.63
2022-08-30T06:36:09.635Z,100145.66
2022-08-30T06:36:56.495Z,100143.66
2022-08-30T06:37:43.908Z,100144.34
2022-08-30T06:38:30.694Z,100138.78
2022-08-30T06:39:17.447Z,100139.91
2022-08-30T06:40:05.078Z,100141.00
2022-08-30T06:40:51.924Z,100141.41
2022-08-30T06:41:40.479Z,100143.13
2022-08-30T06:42:32.352Z,100133.03
2022-08-30T06:43:19.446Z,100136.03
2022-08-30T06:44:06.783Z,100135.44
2022-08-30T06:44:55.848Z,100127.91
2022-08-30T06:45:42.669Z,100136.75
2022-08-30T06:46:32.753Z,100135.19
2022-08-30T06:47:19.767Z,100132.53
2022-08-30T06:48:06.608Z,100132.37
2022-08-30T06:48:56.163Z,100130.97
2022-08-30T06:49:43.492Z,100125.41
2022-08-30T06:50:32.096Z,100124.31
2022-08-30T06:51:31.811Z,100130.97
2022-08-30T06:52:21.287Z,100132.31
2022-08-30T06:53:09.400Z,100131.72
2022-08-30T06:53:56.728Z,100133.94
2022-08-30T06:54:44.167Z,100128.56
2022-08-30T06:55:33.464Z,100130.50
2022-08-30T06:56:22.174Z,100134.25
2022-08-30T06:57:09.259Z,100138.78
2022-08-30T06:57:56.080Z,100130.84
2022-08-30T06:58:43.155Z,100128.28
2022-08-30T06:59:29.972Z,100135.53
2022-08-30T07:00:17.447Z,100132.37
2022-08-30T07:01:05.894Z,100142.97
2022-08-30T07:01:52.765Z,100135.44
2022-08-30T07:02:40.064Z,100138.28
2022-08-30T07:03:27.541Z,100143.22
2022-08-30T07:04:14.582Z,100145.78
2022-08-30T07:05:02.739Z,100143.44
2022-08-30T07:05:50.265Z,100144.41
2022-08-30T07:06:37.076Z,100156.88
2022-08-30T07:07:24.266Z,100145.22
2022-08-30T07:08:11.110Z,100154.22
2022-08-30T07:08:58.142Z,100146.88
2022-08-30T07:09:45.021Z,100143.97
2022-08-30T07:10:31.826Z,100146.16
2022-08-30T07:11:28.476Z,100140.38
2022-08-30T07:12:15.966Z,100146.38
2022-08-30T07:13:02.912Z,100146.72
2022-08-30T07:13:49.637Z,100147.22
2022-08-30T07:14:37.108Z,100153.81
2022-08-30T07:15:24.101Z,100149.47
2022-08-30T07:16:12.281Z,100155.63
2022-08-30T07:16:59.343Z,100154.88
2022-08-30T07:18:05.226Z,100159.72
2022-08-30T07:18:54.735Z,100157.12
2022-08-30T07:19:41.601Z,100153.84
2022-08-30T07:20:39.997Z,100155.50
2022-08-30T07:21:39.028Z,100161.47
2022-08-30T07:22:25.737Z,100159.88
2022-08-30T07:23:12.913Z,100160.34
2022-08-30T07:24:00.701Z,100164.84
2022-08-30T07:24:48.488Z,100165.09
2022-08-30T07:25:37.072Z,100165.25
2022-08-30T07:26:53.865Z,100172.00
2022-08-30T07:27:40.770Z,100162.09
2022-08-30T07:28:27.743Z,100167.44
2022-08-30T07:29:15.541Z,100168.78
2022-08-30T07:30:03.978Z,100156.69
2022-08-30T07:30:51.635Z,100163.88
2022-08-30T07:31:38.567Z,100157.03
2022-08-30T07:32:25.861Z,100163.94
2022-08-30T07:33:12.812Z,100163.53
2022-08-30T07:33:59.881Z,100157.97
2022-08-30T07:34:46.727Z,100160.97
2022-08-30T07:35:34.273Z,100159.31
2022-08-30T07:36:22.217Z,100157.03
2022-08-30T07:37:09.011Z,100163.88
2022-08-30T07:37:55.814Z,100167.09
2022-08-30T07:38:42.674Z,100159.63
2022-08-30T07:39:29.660Z,100165.53
2022-08-30T07:40:18.880Z,100161.47
2022-08-30T07:41:06.266Z,100162.53
2022-08-30T07:41:53.126Z,100164.34
2022-08-30T07:42:41.155Z,100167.09
2022-08-30T07:43:29.042Z,100161.12
2022-08-30T07:44:15.820Z,100167.44
2022-08-30T07:45:03.564Z,100164.69
2022-08-30T07:45:50.385Z,100156.59
2022-08-30T07:46:40.903Z,100164.84
2022-08-30T07:47:27.840Z,100165.69
2022-08-30T07:48:14.683Z,100160.00
2022-08-30T07:49:01.943Z,100164.81
2022-08-30T07:49:51.082Z,100166.22
2022-08-30T07:50:38.937Z,100164.88
2022-08-30T07:51:26.924Z,100166.28
2022-08-30T07:52:13.818Z,100169.13
2022-08-30T07:53:00.784Z,100162.31
2022-08-30T07:53:48.140Z,100166.16
2022-08-30T07:54:35.361Z,100169.34
2022-08-30T07:55:22.289Z,100165.94
2022-08-30T07:56:09.572Z,100170.75
2022-08-30T07:56:56.519Z,100171.03
2022-08-30T07:57:43.448Z,100171.88
2022-08-30T07:58:30.360Z,100158.75
2022-08-30T07:59:17.167Z,100161.25
2022-08-30T08:00:05.341Z,100159.44
2022-08-30T08:00:52.309Z,100155.91
2022-08-30T08:01:39.254Z,100158.50
2022-08-30T08:02:26.434Z,100158.34
2022-08-30T08:03:13.624Z,100157.06
2022-08-30T08:04:00.511Z,100152.44
2022-08-30T08:04:48.665Z,100154.97
2022-08-30T08:05:42.997Z,100163.06
2022-08-30T08:06:34.947Z,100152.34
2022-08-30T08:07:22.994Z,100159.53
2022-08-30T08:08:10.846Z,100161.75
2022-08-30T08:09:02.363Z,100167.34
2022-08-30T08:09:49.601Z,100164.62
2022-08-30T08:10:38.412Z,100165.00
2022-08-30T08:11:29.426Z,100170.19
2022-08-30T08:12:18.762Z,100168.91
2022-08-30T08:13:06.147Z,100171.22
2022-08-30T08:13:54.603Z,100170.72
2022-08-30T08:14:41.761Z,100176.44
2022-08-30T08:15:29.205Z,100175.87
2022-08-30T08:16:16.537Z,100173.06
2022-08-30T08:17:05.287Z,100176.69
2022-08-30T08:17:52.269Z,100180.31
2022-08-30T08:18:39.081Z,100181.41
2022-08-30T08:19:26.105Z,100176.16
2022-08-30T08:20:12.937Z,100176.53
2022-08-30T08:21:00.326Z,100175.69
2022-08-30T08:21:48.639Z,100171.06
2022-08-30T08:22:40.057Z,100175.22
2022-08-30T08:23:27.550Z,100172.44
2022-08-30T08:24:14.897Z,100180.28
2022-08-30T08:25:01.896Z,100173.38
2022-08-30T08:25:48.801Z,100174.97
2022-08-30T08:26:37.093Z,100173.13
2022-08-30T08:27:25.026Z,100171.91
2022-08-30T08:28:11.885Z,100175.50
2022-08-30T08:28:58.854Z,100172.28
2022-08-30T08:29:45.732Z,100174.81
2022-08-30T08:30:35.092Z,100169.44
2022-08-30T08:31:27.060Z,100170.38
2022-08-30T08:32:19.075Z,100169.41
2022-08-30T08:33:08.764Z,100172.81
2022-08-30T08:33:56.745Z,100171.03
2022-08-30T08:34:43.807Z,100174.09
2022-08-30T08:35:30.599Z,100166.09
2022-08-30T08:36:18.758Z,100170.72
2022-08-30T08:37:05.532Z,100174.12
2022-08-30T08:37:52.488Z,100177.81
2022-08-30T08:38:39.567Z,100174.59
2022-08-30T08:39:26.987Z,100171.63
2022-08-30T08:40:18.924Z,100173.88
2022-08-30T08:41:13.606Z,100173.63
2022-08-30T08:42:14.780Z,100175.28
2022-08-30T08:43:20.105Z,100173.41
2022-08-30T08:44:29.267Z,100175.69
2022-08-30T08:45:28.172Z,100172.13
2022-08-30T08:46:31.423Z,100164.97
2022-08-30T08:47:55.201Z,100173.97
2022-08-30T08:48:59.539Z,100174.22
2022-08-30T08:49:49.660Z,100169.63
2022-08-30T08:50:36.967Z,100171.88
2022-08-30T08:51:45.970Z,100175.56
2022-08-30T08:53:24.999Z,100175.06
2022-08-30T08:54:33.734Z,100172.25
2022-08-30T08:55:22.654Z,100175.06
2022-08-30T08:56:15.601Z,100173.72
2022-08-30T08:57:02.612Z,100173.13
2022-08-30T08:57:49.496Z,100172.56
2022-08-30T08:58:45.522Z,100177.88
2022-08-30T08:59:32.509Z,100168.22
2022-08-30T09:00:19.482Z,100169.37
2022-08-30T09:01:08.864Z,100170.50
2022-08-30T09:01:59.323Z,100167.75
2022-08-30T09:02:55.787Z,100172.50
2022-08-30T09:03:43.766Z,100168.38
2022-08-30T09:04:34.901Z,100171.94
2022-08-30T09:05:26.225Z,100174.12
2022-08-30T09:06:35.265Z,100168.06
2022-08-30T09:07:25.177Z,100170.31
2022-08-30T09:08:14.960Z,100168.97
2022-08-30T09:09:01.896Z,100166.22
2022-08-30T09:09:50.053Z,100170.88
2022-08-30T09:10:49.917Z,100168.63
2022-08-30T09:11:37.903Z,100158.44
2022-08-30T09:12:24.966Z,100156.00
2022-08-30T09:13:13.752Z,100153.78
2022-08-30T09:14:00.988Z,100157.94
2022-08-30T09:14:55.475Z,100152.22
2022-08-30T09:15:43.100Z,100154.97